Terminal Aerodrome Forecast
Issued by NWS

Current Version | Previous Version | Text Only | Print | Product List | Glossary On
Versions: 1 2 3 4 5 6 7 8 9 10 11 12 13 14 15 16 17 18 19 20 21 22 23 24 25 26 27 28 29 30 31 32
000
FTUS45 KCYS 231300 AAA
TAFAIA
TAF AMD
KAIA 231355Z 2314/2412 VRB03KT P6SM BKN006 OVC018
     FM231600 23012KT P6SM SCT025 BKN060
     FM240100 27013KT P6SM VCSH BKN080=

USA.gov is the U.S. government's official web portal to all federal, state and local government web resources and services.